createdAt,value
2023-04-16T00:01:03.568Z,8.94
2023-04-16T00:03:30.365Z,8.93
2023-04-16T00:05:56.996Z,8.93
2023-04-16T00:08:24.740Z,8.94
2023-04-16T00:10:53.199Z,8.95
2023-04-16T00:13:27.544Z,8.93
2023-04-16T00:15:54.116Z,8.96
2023-04-16T00:18:21.556Z,8.94
2023-04-16T00:20:48.839Z,8.94
2023-04-16T00:23:15.744Z,8.96
2023-04-16T00:25:42.897Z,8.97
2023-04-16T00:28:10.994Z,9.00
2023-04-16T00:30:37.890Z,8.98
2023-04-16T00:33:05.944Z,8.99
2023-04-16T00:35:32.646Z,9.01
2023-04-16T00:37:59.190Z,9.02
2023-04-16T00:40:29.744Z,9.01
2023-04-16T00:42:56.295Z,9.05
2023-04-16T00:45:22.838Z,9.07
2023-04-16T00:47:49.791Z,9.06
2023-04-16T00:50:17.661Z,9.06
2023-04-16T00:52:46.875Z,9.08
2023-04-16T00:55:13.609Z,9.09
2023-04-16T00:57:42.069Z,9.08
2023-04-16T01:00:09.787Z,9.07
2023-04-16T01:02:38.049Z,9.08
2023-04-16T01:05:05.301Z,9.06
2023-04-16T01:07:32.117Z,9.07
2023-04-16T01:10:01.993Z,9.08
2023-04-16T01:12:28.538Z,9.12
2023-04-16T01:15:13.811Z,9.10
2023-04-16T01:17:40.498Z,9.10
2023-04-16T01:20:09.991Z,9.12
2023-04-16T01:22:36.486Z,9.13
2023-04-16T01:25:04.049Z,9.14
2023-04-16T01:27:31.299Z,9.11
2023-04-16T01:29:58.860Z,9.14
2023-04-16T01:32:25.592Z,9.11
2023-04-16T01:34:52.137Z,9.14
2023-04-16T01:37:19.024Z,9.15
2023-04-16T01:39:47.145Z,9.16
2023-04-16T01:42:13.788Z,9.15
2023-04-16T01:44:47.488Z,9.17
2023-04-16T01:47:14.309Z,9.20
2023-04-16T01:49:42.656Z,9.19
2023-04-16T01:52:09.354Z,9.18
2023-04-16T01:54:35.893Z,9.19
2023-04-16T01:57:03.216Z,9.21
2023-04-16T01:59:29.858Z,9.21
2023-04-16T02:01:56.481Z,9.23
2023-04-16T02:04:43.035Z,9.19
2023-04-16T02:07:11.306Z,9.20
2023-04-16T02:09:39.716Z,9.19
2023-04-16T02:12:11.324Z,9.18
2023-04-16T02:14:37.980Z,9.20
2023-04-16T02:17:04.918Z,9.18
2023-04-16T02:19:31.449Z,9.18
2023-04-16T02:22:03.890Z,9.21
2023-04-16T02:24:30.586Z,9.21
2023-04-16T02:26:58.988Z,9.21
2023-04-16T02:29:25.539Z,9.22
2023-04-16T02:31:54.056Z,9.21
2023-04-16T02:34:20.824Z,9.24
2023-04-16T02:36:47.410Z,9.24
2023-04-16T02:39:14.106Z,9.24
2023-04-16T02:42:00.650Z,9.23
2023-04-16T02:44:27.276Z,9.24
2023-04-16T02:46:55.342Z,9.21
2023-04-16T02:49:22.094Z,9.22
2023-04-16T02:51:49.340Z,9.24
2023-04-16T02:54:15.911Z,9.24
2023-04-16T02:56:43.481Z,9.23
2023-04-16T02:59:10.192Z,9.22
2023-04-16T03:01:37.679Z,9.23
2023-04-16T03:04:04.519Z,9.23
2023-04-16T03:06:31.631Z,9.24
2023-04-16T03:08:58.395Z,9.25
2023-04-16T03:11:25.050Z,9.24
2023-04-16T03:13:51.619Z,9.24
2023-04-16T03:16:19.895Z,9.25
2023-04-16T03:18:46.505Z,9.24
2023-04-16T03:21:13.036Z,9.25
2023-04-16T03:23:39.649Z,9.25
2023-04-16T03:26:28.745Z,9.24
2023-04-16T03:28:55.371Z,9.24
2023-04-16T03:31:26.259Z,9.25
2023-04-16T03:33:52.876Z,9.25
2023-04-16T03:36:19.900Z,9.23
2023-04-16T03:38:46.385Z,9.23
2023-04-16T03:41:13.311Z,9.26
2023-04-16T03:43:40.130Z,9.21
2023-04-16T03:46:08.523Z,9.23
2023-04-16T03:48:35.338Z,9.22
2023-04-16T03:51:02.858Z,9.21
2023-04-16T03:53:29.688Z,9.22
2023-04-16T03:55:57.272Z,9.23
2023-04-16T03:58:23.938Z,9.22
2023-04-16T04:01:09.310Z,9.23
2023-04-16T04:03:36.293Z,9.21
2023-04-16T04:06:08.304Z,9.19
2023-04-16T04:08:34.874Z,9.17
2023-04-16T04:11:01.439Z,9.18
2023-04-16T04:13:28.059Z,9.15
2023-04-16T04:15:55.735Z,9.14
2023-04-16T04:18:22.365Z,9.13
2023-04-16T04:21:07.928Z,9.14
2023-04-16T04:23:41.936Z,9.14
2023-04-16T04:26:08.828Z,9.15
2023-04-16T04:28:36.089Z,9.17
2023-04-16T04:31:02.866Z,9.15
2023-04-16T04:33:29.408Z,9.13
2023-04-16T04:35:56.038Z,9.14
2023-04-16T04:38:25.461Z,9.11
2023-04-16T04:40:53.007Z,9.12
2023-04-16T04:43:21.770Z,9.12
2023-04-16T04:45:49.409Z,9.12
2023-04-16T04:48:16.355Z,9.11
2023-04-16T04:50:43.167Z,9.09
2023-04-16T04:53:10.718Z,9.08
2023-04-16T04:55:38.539Z,9.07
2023-04-16T04:58:25.388Z,9.09
2023-04-16T05:00:51.968Z,9.08
2023-04-16T05:03:22.984Z,9.08
2023-04-16T05:05:49.616Z,9.09
2023-04-16T05:08:16.243Z,9.10
2023-04-16T05:10:43.045Z,9.11
2023-04-16T05:13:09.621Z,9.15
2023-04-16T05:15:36.197Z,9.15
2023-04-16T05:18:06.715Z,9.13
2023-04-16T05:20:35.071Z,9.13
2023-04-16T05:23:01.575Z,9.14
2023-04-16T05:25:29.320Z,9.14
2023-04-16T05:27:55.924Z,9.12
2023-04-16T05:30:22.462Z,9.15
2023-04-16T05:32:49.064Z,9.13
2023-04-16T05:35:17.827Z,9.15
2023-04-16T05:37:44.479Z,9.15
2023-04-16T05:40:14.009Z,9.17
2023-04-16T05:42:40.595Z,9.15
2023-04-16T05:45:11.822Z,9.16
2023-04-16T05:47:38.583Z,9.16
2023-04-16T05:50:05.666Z,9.19
2023-04-16T05:52:32.295Z,9.18
2023-04-16T05:55:01.741Z,9.18
2023-04-16T05:57:29.247Z,9.19
2023-04-16T05:59:57.072Z,9.21
2023-04-16T06:02:23.732Z,9.23
2023-04-16T06:04:50.581Z,9.26
2023-04-16T06:07:17.172Z,9.25
2023-04-16T06:09:44.726Z,9.26
2023-04-16T06:12:11.411Z,9.21
2023-04-16T06:14:38.003Z,9.22
2023-04-16T06:17:04.597Z,9.21
2023-04-16T06:19:31.176Z,9.23
2023-04-16T06:21:58.244Z,9.23
2023-04-16T06:24:24.914Z,9.24
2023-04-16T06:26:54.496Z,9.31
2023-04-16T06:29:28.007Z,9.31
2023-04-16T06:32:04.361Z,9.32
2023-04-16T06:34:31.690Z,9.37
2023-04-16T06:36:58.261Z,9.41
2023-04-16T06:39:43.482Z,9.50
2023-04-16T06:42:10.574Z,9.58
2023-04-16T06:45:33.403Z,9.58
2023-04-16T06:48:00.025Z,9.63
2023-04-16T06:51:22.905Z,9.67
2023-04-16T06:57:37.620Z,9.68
2023-04-16T07:00:07.738Z,9.69
2023-04-16T07:06:21.892Z,9.70
2023-04-16T07:08:48.617Z,9.73
2023-04-16T07:11:52.804Z,9.76
2023-04-16T07:14:19.407Z,9.79
2023-04-16T07:16:45.996Z,9.85
2023-04-16T07:20:09.172Z,9.91
2023-04-16T07:22:35.946Z,10.00
2023-04-16T07:25:42.751Z,10.06
2023-04-16T07:28:09.340Z,10.11
2023-04-16T07:30:54.644Z,10.15
2023-04-16T07:33:21.255Z,10.20
2023-04-16T07:35:47.985Z,10.22
2023-04-16T07:38:19.745Z,10.21
2023-04-16T07:40:46.397Z,10.27
2023-04-16T07:43:31.782Z,10.32
2023-04-16T07:48:48.616Z,10.45
2023-04-16T07:58:11.817Z,10.74
2023-04-16T08:01:34.540Z,10.77
2023-04-16T08:04:01.263Z,10.80
2023-04-16T08:06:27.841Z,10.84
2023-04-16T08:09:19.164Z,10.89
2023-04-16T08:12:23.534Z,10.92
2023-04-16T08:18:37.517Z,11.08
2023-04-16T08:24:52.633Z,11.22
2023-04-16T08:30:28.759Z,11.23
2023-04-16T08:32:55.509Z,11.34
2023-04-16T08:35:41.348Z,11.45
2023-04-16T08:38:08.017Z,11.52
2023-04-16T08:40:39.366Z,11.63
2023-04-16T08:43:11.670Z,11.74
2023-04-16T08:45:38.642Z,11.82
2023-04-16T08:49:01.513Z,11.90
2023-04-16T08:51:33.969Z,11.97
2023-04-16T08:54:57.301Z,12.01
2023-04-16T08:57:28.712Z,12.06
2023-04-16T09:03:36.905Z,12.34
2023-04-16T09:06:04.875Z,12.33
2023-04-16T09:08:32.334Z,12.32
2023-04-16T09:14:49.932Z,12.52
2023-04-16T09:17:17.054Z,12.62
2023-04-16T09:19:44.230Z,12.66
2023-04-16T09:22:11.797Z,12.66
2023-04-16T09:24:38.774Z,12.71
2023-04-16T09:30:46.036Z,12.96
2023-04-16T09:33:17.508Z,13.12
2023-04-16T09:35:49.019Z,13.27
2023-04-16T09:38:16.434Z,13.38
2023-04-16T09:40:43.076Z,13.40
2023-04-16T09:43:14.506Z,13.46
2023-04-16T09:45:51.796Z,13.50
2023-04-16T09:49:07.459Z,13.59
2023-04-16T09:51:37.684Z,13.75
2023-04-16T09:54:08.151Z,13.82
2023-04-16T09:57:01.798Z,13.85
2023-04-16T10:00:24.723Z,14.11
2023-04-16T10:07:28.680Z,14.28
2023-04-16T10:14:00.710Z,14.46
2023-04-16T10:20:17.349Z,14.82
2023-04-16T10:26:35.163Z,14.93
2023-04-16T10:33:07.392Z,15.01
2023-04-16T10:35:38.961Z,15.04
2023-04-16T10:39:01.874Z,15.00
2023-04-16T10:41:29.095Z,15.10
2023-04-16T10:44:52.361Z,15.04
2023-04-16T10:47:19.045Z,15.03
2023-04-16T10:53:27.754Z,14.97
2023-04-16T10:59:21.482Z,15.04
2023-04-16T11:01:51.455Z,14.89
2023-04-16T11:04:21.278Z,14.88
2023-04-16T11:07:06.537Z,15.00
2023-04-16T11:10:04.411Z,15.14
2023-04-16T11:13:21.501Z,15.37
2023-04-16T11:15:48.691Z,15.55
2023-04-16T11:21:56.342Z,15.55
2023-04-16T11:24:24.602Z,15.55
2023-04-16T11:26:52.783Z,15.57
2023-04-16T11:29:19.366Z,15.65
2023-04-16T11:31:53.595Z,15.79
2023-04-16T11:34:21.480Z,15.86
2023-04-16T11:36:49.992Z,15.95
2023-04-16T11:43:53.919Z,15.76
2023-04-16T11:46:27.516Z,15.92
2023-04-16T11:48:57.957Z,15.96
2023-04-16T11:51:24.723Z,16.00
2023-04-16T11:53:59.966Z,16.05
2023-04-16T11:56:31.076Z,15.93
2023-04-16T11:59:17.969Z,15.71
2023-04-16T12:02:00.264Z,15.61
2023-04-16T12:04:27.976Z,15.45
2023-04-16T12:07:14.292Z,15.36
2023-04-16T12:09:43.151Z,15.38
2023-04-16T12:12:27.480Z,15.50
2023-04-16T12:14:56.855Z,15.73
2023-04-16T12:17:24.086Z,15.95
2023-04-16T12:19:56.259Z,16.08
2023-04-16T12:22:29.443Z,16.18
2023-04-16T12:25:00.188Z,16.21
2023-04-16T12:27:46.378Z,16.02
2023-04-16T12:30:14.475Z,16.02
2023-04-16T12:32:49.017Z,16.08
2023-04-16T12:35:35.649Z,16.07
2023-04-16T12:38:03.604Z,15.93
2023-04-16T12:40:31.063Z,15.89
2023-04-16T12:42:57.853Z,15.96
2023-04-16T12:45:24.736Z,16.05
2023-04-16T12:47:51.561Z,16.18
2023-04-16T12:50:19.329Z,16.30
2023-04-16T12:52:46.082Z,16.37
2023-04-16T12:55:15.626Z,16.33
2023-04-16T12:57:42.965Z,16.21
2023-04-16T13:00:12.899Z,16.07
2023-04-16T13:02:40.103Z,15.84
2023-04-16T13:05:08.017Z,15.76
2023-04-16T13:07:35.296Z,15.70
2023-04-16T13:10:01.977Z,15.69
2023-04-16T13:12:29.823Z,15.69
2023-04-16T13:14:56.396Z,15.74
2023-04-16T13:17:23.051Z,15.73
2023-04-16T13:19:49.866Z,15.77
2023-04-16T13:22:16.480Z,15.78
2023-04-16T13:24:43.076Z,15.77
2023-04-16T13:27:09.631Z,15.78
2023-04-16T13:29:36.827Z,15.80
2023-04-16T13:34:55.821Z,15.83
2023-04-16T13:37:22.437Z,15.78
2023-04-16T13:39:49.367Z,15.77
2023-04-16T13:42:21.988Z,15.82
2023-04-16T13:45:07.315Z,15.91
2023-04-16T13:47:33.979Z,15.94
2023-04-16T13:50:01.070Z,15.98
2023-04-16T13:52:27.794Z,16.05
2023-04-16T13:54:54.373Z,16.17
2023-04-16T13:57:20.966Z,16.27
2023-04-16T13:59:47.729Z,16.31
2023-04-16T14:02:14.815Z,16.42
2023-04-16T14:04:42.044Z,16.44
2023-04-16T14:07:08.630Z,16.38
2023-04-16T14:09:35.757Z,16.41
2023-04-16T14:12:03.562Z,16.43
2023-04-16T14:14:30.131Z,16.42
2023-04-16T14:16:58.437Z,16.37
2023-04-16T14:19:25.408Z,16.31
2023-04-16T14:21:52.113Z,16.35
2023-04-16T14:24:19.607Z,16.30
2023-04-16T14:26:47.028Z,16.25
2023-04-16T14:29:13.870Z,16.22
2023-04-16T14:31:41.686Z,16.13
2023-04-16T14:34:08.281Z,16.11
2023-04-16T14:36:53.603Z,16.12
2023-04-16T14:39:21.024Z,16.17
2023-04-16T14:41:47.604Z,16.16
2023-04-16T14:44:14.138Z,16.12
2023-04-16T14:46:59.770Z,16.13
2023-04-16T14:49:26.470Z,16.15
2023-04-16T14:51:54.578Z,16.14
2023-04-16T14:54:21.389Z,16.07
2023-04-16T14:56:50.676Z,16.10
2023-04-16T14:59:17.679Z,16.08
2023-04-16T15:01:44.524Z,16.11
2023-04-16T15:04:11.441Z,16.05
2023-04-16T15:06:38.626Z,16.03
2023-04-16T15:09:08.217Z,16.04
2023-04-16T15:11:35.807Z,16.03
2023-04-16T15:14:02.321Z,16.03
2023-04-16T15:16:28.946Z,16.09
2023-04-16T15:18:55.534Z,16.08
2023-04-16T15:21:23.101Z,16.09
2023-04-16T15:23:49.650Z,16.12
2023-04-16T15:26:39.897Z,16.10
2023-04-16T15:29:06.550Z,16.05
2023-04-16T15:31:39.224Z,16.08
2023-04-16T15:34:06.001Z,16.05
2023-04-16T15:36:33.389Z,16.10
2023-04-16T15:38:59.959Z,16.19
2023-04-16T15:41:31.880Z,16.20
2023-04-16T15:43:58.480Z,16.10
2023-04-16T15:46:25.039Z,16.03
2023-04-16T15:48:54.613Z,15.99
2023-04-16T15:51:21.219Z,15.92
2023-04-16T15:53:49.526Z,15.93
2023-04-16T15:56:16.994Z,15.90
2023-04-16T15:58:43.596Z,15.88
2023-04-16T16:01:11.904Z,15.86
2023-04-16T16:03:38.698Z,15.75
2023-04-16T16:06:07.645Z,15.67
2023-04-16T16:08:36.904Z,15.61
2023-04-16T16:11:04.669Z,15.57
2023-04-16T16:13:31.395Z,15.52
2023-04-16T16:15:58.067Z,15.47
2023-04-16T16:18:24.677Z,15.44
2023-04-16T16:20:56.942Z,15.43
2023-04-16T16:23:23.802Z,15.42
2023-04-16T16:25:51.524Z,15.44
2023-04-16T16:28:18.137Z,15.43
2023-04-16T16:30:47.497Z,15.41
2023-04-16T16:33:15.503Z,15.40
2023-04-16T16:35:42.197Z,15.43
2023-04-16T16:38:08.746Z,15.46
2023-04-16T16:40:54.234Z,15.43
2023-04-16T16:43:21.170Z,15.42
2023-04-16T16:45:48.963Z,15.38
2023-04-16T16:48:15.585Z,15.39
2023-04-16T16:50:42.558Z,15.41
2023-04-16T16:53:09.371Z,15.42
2023-04-16T16:55:35.988Z,15.41
2023-04-16T16:58:03.472Z,15.44
2023-04-16T17:00:30.874Z,15.49
2023-04-16T17:02:57.626Z,15.52
2023-04-16T17:05:24.581Z,15.50
2023-04-16T17:07:51.136Z,15.53
2023-04-16T17:10:21.029Z,15.52
2023-04-16T17:12:51.923Z,15.52
2023-04-16T17:15:21.376Z,15.54
2023-04-16T17:18:07.092Z,15.53
2023-04-16T17:20:33.910Z,15.52
2023-04-16T17:23:03.462Z,15.49
2023-04-16T17:25:30.488Z,15.47
2023-04-16T17:27:59.522Z,15.42
2023-04-16T17:30:27.817Z,15.44
2023-04-16T17:32:54.462Z,15.41
2023-04-16T17:35:21.264Z,15.38
2023-04-16T17:37:47.838Z,15.37
2023-04-16T17:40:18.158Z,15.37
2023-04-16T17:43:03.535Z,15.34
2023-04-16T17:45:30.397Z,15.31
2023-04-16T17:47:58.674Z,15.29
2023-04-16T17:50:27.410Z,15.28
2023-04-16T17:52:54.792Z,15.22
2023-04-16T17:55:22.439Z,15.16
2023-04-16T17:57:49.047Z,15.07
2023-04-16T18:00:16.193Z,14.99
2023-04-16T18:02:43.306Z,14.92
2023-04-16T18:05:10.096Z,14.87
2023-04-16T18:07:37.605Z,14.81
2023-04-16T18:10:04.759Z,14.73
2023-04-16T18:12:31.348Z,14.67
2023-04-16T18:15:17.736Z,14.62
2023-04-16T18:17:44.339Z,14.55
2023-04-16T18:20:12.703Z,14.48
2023-04-16T18:22:39.313Z,14.46
2023-04-16T18:25:07.374Z,14.39
2023-04-16T18:27:34.415Z,14.34
2023-04-16T18:30:04.603Z,14.31
2023-04-16T18:32:31.557Z,14.27
2023-04-16T18:34:58.625Z,14.24
2023-04-16T18:37:25.216Z,14.18
2023-04-16T18:39:51.802Z,14.14
2023-04-16T18:42:18.311Z,14.09
2023-04-16T18:44:54.115Z,14.07
2023-04-16T18:47:20.941Z,14.01
2023-04-16T18:49:47.902Z,13.97
2023-04-16T18:52:16.257Z,13.95
2023-04-16T18:54:43.601Z,13.95
2023-04-16T18:57:10.397Z,13.92
2023-04-16T18:59:36.990Z,13.90
2023-04-16T19:02:04.371Z,13.84
2023-04-16T19:04:31.541Z,13.79
2023-04-16T19:06:58.951Z,13.73
2023-04-16T19:09:27.240Z,13.68
2023-04-16T19:11:53.865Z,13.66
2023-04-16T19:14:22.112Z,13.65
2023-04-16T19:16:48.676Z,13.62
2023-04-16T19:19:15.331Z,13.58
2023-04-16T19:21:41.967Z,13.52
2023-04-16T19:24:08.632Z,13.48
2023-04-16T19:26:36.178Z,13.45
2023-04-16T19:29:02.784Z,13.38
2023-04-16T19:31:29.689Z,13.33
2023-04-16T19:33:56.473Z,13.31
2023-04-16T19:36:23.181Z,13.26
2023-04-16T19:38:50.199Z,13.22
2023-04-16T19:41:16.839Z,13.14
2023-04-16T19:43:45.346Z,13.09
2023-04-16T19:46:15.466Z,13.05
2023-04-16T19:48:42.219Z,13.00
2023-04-16T19:51:08.937Z,12.96
2023-04-16T19:53:35.988Z,12.89
2023-04-16T19:56:05.509Z,12.86
2023-04-16T19:58:32.236Z,12.82
2023-04-16T20:01:00.363Z,12.80
2023-04-16T20:03:27.039Z,12.76
2023-04-16T20:05:53.772Z,12.73
2023-04-16T20:08:22.266Z,12.70
2023-04-16T20:10:48.797Z,12.62
2023-04-16T20:13:17.396Z,12.53
2023-04-16T20:15:45.252Z,12.48
2023-04-16T20:18:12.893Z,12.43
2023-04-16T20:20:39.535Z,12.37
2023-04-16T20:23:06.127Z,12.32
2023-04-16T20:25:32.760Z,12.29
2023-04-16T20:27:59.523Z,12.17
2023-04-16T20:30:29.421Z,12.11
2023-04-16T20:32:58.476Z,12.07
2023-04-16T20:35:25.329Z,11.98
2023-04-16T20:37:51.916Z,11.90
2023-04-16T20:40:18.584Z,11.83
2023-04-16T20:42:47.701Z,11.77
2023-04-16T20:45:14.342Z,11.70
2023-04-16T20:48:00.028Z,11.62
2023-04-16T20:50:26.968Z,11.54
2023-04-16T20:52:53.652Z,11.50
2023-04-16T21:00:55.227Z,11.44
2023-04-16T21:03:22.760Z,11.41
2023-04-16T21:05:50.876Z,11.38
2023-04-16T21:08:18.078Z,11.34
2023-04-16T21:10:51.326Z,11.25
2023-04-16T21:13:18.780Z,11.21
2023-04-16T21:15:46.074Z,11.16
2023-04-16T21:18:12.873Z,11.12
2023-04-16T21:20:40.045Z,11.10
2023-04-16T21:23:06.958Z,11.02
2023-04-16T21:25:36.859Z,10.94
2023-04-16T21:28:03.477Z,10.92
2023-04-16T21:30:30.065Z,10.90
2023-04-16T21:33:21.225Z,10.90
2023-04-16T21:35:54.135Z,10.88
2023-04-16T21:38:21.570Z,10.87
2023-04-16T21:40:50.796Z,10.82
2023-04-16T21:46:08.746Z,10.90
2023-04-16T21:48:35.567Z,10.87
2023-04-16T21:51:06.578Z,10.83
2023-04-16T21:53:33.946Z,10.79
2023-04-16T21:56:22.265Z,10.78
2023-04-16T21:58:48.802Z,10.77
2023-04-16T22:01:15.451Z,10.73
2023-04-16T22:03:42.272Z,10.71
2023-04-16T22:06:08.994Z,10.71
2023-04-16T22:08:35.529Z,10.72
2023-04-16T22:11:03.089Z,10.72
2023-04-16T22:13:32.429Z,10.72
2023-04-16T22:16:01.426Z,10.73
2023-04-16T22:18:28.989Z,10.76
2023-04-16T22:20:56.259Z,10.75
2023-04-16T22:23:26.321Z,10.72
2023-04-16T22:26:12.899Z,10.67
2023-04-16T22:28:39.539Z,10.58
2023-04-16T22:31:07.797Z,10.51
2023-04-16T22:33:34.519Z,10.50
2023-04-16T22:36:01.882Z,10.45
2023-04-16T22:38:28.461Z,10.42
2023-04-16T22:41:13.818Z,10.42
2023-04-16T22:43:40.685Z,10.40
2023-04-16T22:46:09.633Z,10.40
2023-04-16T22:48:38.276Z,10.37
2023-04-16T22:51:09.600Z,10.39
2023-04-16T22:53:36.943Z,10.38
2023-04-16T22:56:04.518Z,10.39
2023-04-16T22:58:35.408Z,10.35
2023-04-16T23:04:44.501Z,10.32
2023-04-16T23:07:11.259Z,10.31
2023-04-16T23:09:37.893Z,10.33
2023-04-16T23:12:04.717Z,10.34
2023-04-16T23:14:31.586Z,10.33
2023-04-16T23:16:58.732Z,10.28
2023-04-16T23:19:25.419Z,10.26
2023-04-16T23:21:51.950Z,10.23
2023-04-16T23:24:20.806Z,10.23
2023-04-16T23:26:48.164Z,10.24
2023-04-16T23:29:14.717Z,10.18
2023-04-16T23:31:41.322Z,10.18
2023-04-16T23:34:07.870Z,10.19
2023-04-16T23:36:34.582Z,10.13
2023-04-16T23:39:01.906Z,10.12
2023-04-16T23:41:28.590Z,10.13
2023-04-16T23:43:55.996Z,10.11
2023-04-16T23:46:22.674Z,10.11
2023-04-16T23:48:50.400Z,10.11
2023-04-16T23:51:16.950Z,10.10
2023-04-16T23:53:44.147Z,10.11
2023-04-16T23:56:11.408Z,10.13
2023-04-16T23:58:38.196Z,10.12
